sensor_id;sensor_type;location;lat;lon;timestamp;temperature;humidity
74901;DHT22;63461;51.416;6.758;2022-10-31T00:00:00;15.70;99.90
74901;DHT22;63461;51.416;6.758;2022-10-31T00:02:45;15.70;99.90
74901;DHT22;63461;51.416;6.758;2022-10-31T00:05:29;15.60;99.90
74901;DHT22;63461;51.416;6.758;2022-10-31T00:08:14;15.70;99.90
74901;DHT22;63461;51.416;6.758;2022-10-31T00:10:58;15.60;99.90
74901;DHT22;63461;51.416;6.758;2022-10-31T00:13:42;15.60;99.90
74901;DHT22;63461;51.416;6.758;2022-10-31T00:16:27;15.60;99.90
74901;DHT22;63461;51.416;6.758;2022-10-31T00:19:12;15.50;99.90
74901;DHT22;63461;51.416;6.758;2022-10-31T00:21:56;15.50;99.90
74901;DHT22;63461;51.416;6.758;2022-10-31T00:24:41;15.50;99.90
74901;DHT22;63461;51.416;6.758;2022-10-31T00:27:25;15.50;99.90
74901;DHT22;63461;51.416;6.758;2022-10-31T00:30:12;15.50;99.90
74901;DHT22;63461;51.416;6.758;2022-10-31T00:32:56;15.40;99.90
74901;DHT22;63461;51.416;6.758;2022-10-31T00:35:41;15.40;99.90
74901;DHT22;63461;51.416;6.758;2022-10-31T00:38:25;15.40;99.90
74901;DHT22;63461;51.416;6.758;2022-10-31T00:41:14;15.40;99.90
74901;DHT22;63461;51.416;6.758;2022-10-31T00:43:59;15.40;99.90
74901;DHT22;63461;51.416;6.758;2022-10-31T00:46:43;15.30;99.90
74901;DHT22;63461;51.416;6.758;2022-10-31T00:49:27;15.30;99.90
74901;DHT22;63461;51.416;6.758;2022-10-31T00:52:13;15.30;99.90
74901;DHT22;63461;51.416;6.758;2022-10-31T00:54:57;15.30;99.90
74901;DHT22;63461;51.416;6.758;2022-10-31T00:57:42;15.30;99.90
74901;DHT22;63461;51.416;6.758;2022-10-31T01:00:26;15.30;99.90
74901;DHT22;63461;51.416;6.758;2022-10-31T01:03:11;15.30;99.90
74901;DHT22;63461;51.416;6.758;2022-10-31T01:06:03;15.40;99.90
74901;DHT22;63461;51.416;6.758;2022-10-31T01:08:50;15.30;99.90
74901;DHT22;63461;51.416;6.758;2022-10-31T01:11:34;15.30;99.90
74901;DHT22;63461;51.416;6.758;2022-10-31T01:14:21;15.20;99.90
74901;DHT22;63461;51.416;6.758;2022-10-31T01:17:05;15.20;99.90
74901;DHT22;63461;51.416;6.758;2022-10-31T01:19:49;15.20;99.90
74901;DHT22;63461;51.416;6.758;2022-10-31T01:22:36;15.10;99.90
74901;DHT22;63461;51.416;6.758;2022-10-31T01:25:20;15.10;99.90
74901;DHT22;63461;51.416;6.758;2022-10-31T01:28:05;15.00;99.90
74901;DHT22;63461;51.416;6.758;2022-10-31T01:30:50;15.00;99.90
74901;DHT22;63461;51.416;6.758;2022-10-31T01:33:36;15.00;99.90
74901;DHT22;63461;51.416;6.758;2022-10-31T01:36:29;14.90;99.90
74901;DHT22;63461;51.416;6.758;2022-10-31T01:39:15;14.90;99.90
74901;DHT22;63461;51.416;6.758;2022-10-31T01:41:59;14.90;99.90
74901;DHT22;63461;51.416;6.758;2022-10-31T01:44:48;14.80;99.90
74901;DHT22;63461;51.416;6.758;2022-10-31T01:47:42;14.80;99.90
74901;DHT22;63461;51.416;6.758;2022-10-31T01:50:31;14.80;99.90
74901;DHT22;63461;51.416;6.758;2022-10-31T01:53:19;14.80;99.90
74901;DHT22;63461;51.416;6.758;2022-10-31T01:56:04;14.70;99.90
74901;DHT22;63461;51.416;6.758;2022-10-31T01:58:48;14.70;99.90
74901;DHT22;63461;51.416;6.758;2022-10-31T02:01:34;14.70;99.90
74901;DHT22;63461;51.416;6.758;2022-10-31T02:04:20;14.70;99.90
74901;DHT22;63461;51.416;6.758;2022-10-31T02:07:13;14.80;99.90
74901;DHT22;63461;51.416;6.758;2022-10-31T02:10:00;14.80;99.90
74901;DHT22;63461;51.416;6.758;2022-10-31T02:12:45;14.80;99.90
74901;DHT22;63461;51.416;6.758;2022-10-31T02:15:31;14.70;99.90
74901;DHT22;63461;51.416;6.758;2022-10-31T02:18:16;14.70;99.90
74901;DHT22;63461;51.416;6.758;2022-10-31T02:21:19;14.70;99.90
74901;DHT22;63461;51.416;6.758;2022-10-31T02:34:11;14.60;99.90
74901;DHT22;63461;51.416;6.758;2022-10-31T02:37:26;14.60;99.90
74901;DHT22;63461;51.416;6.758;2022-10-31T02:40:26;14.50;99.90
74901;DHT22;63461;51.416;6.758;2022-10-31T02:52:20;14.50;99.90
74901;DHT22;63461;51.416;6.758;2022-10-31T02:58:17;14.40;99.90
74901;DHT22;63461;51.416;6.758;2022-10-31T03:07:21;14.40;99.90
74901;DHT22;63461;51.416;6.758;2022-10-31T03:13:21;14.30;99.90
74901;DHT22;63461;51.416;6.758;2022-10-31T03:16:14;14.20;99.90
74901;DHT22;63461;51.416;6.758;2022-10-31T03:19:10;14.20;99.90
74901;DHT22;63461;51.416;6.758;2022-10-31T03:22:07;14.20;99.90
74901;DHT22;63461;51.416;6.758;2022-10-31T03:24:55;14.20;99.90
74901;DHT22;63461;51.416;6.758;2022-10-31T03:27:42;14.20;99.90
74901;DHT22;63461;51.416;6.758;2022-10-31T03:30:27;14.20;99.90
74901;DHT22;63461;51.416;6.758;2022-10-31T03:33:18;14.10;99.90
74901;DHT22;63461;51.416;6.758;2022-10-31T03:36:08;14.10;99.90
74901;DHT22;63461;51.416;6.758;2022-10-31T03:38:55;14.10;99.90
74901;DHT22;63461;51.416;6.758;2022-10-31T03:41:45;14.10;99.90
74901;DHT22;63461;51.416;6.758;2022-10-31T03:44:33;14.10;99.90
74901;DHT22;63461;51.416;6.758;2022-10-31T03:47:20;14.00;99.90
74901;DHT22;63461;51.416;6.758;2022-10-31T03:50:07;14.00;99.90
74901;DHT22;63461;51.416;6.758;2022-10-31T03:53:11;14.00;99.90
74901;DHT22;63461;51.416;6.758;2022-10-31T03:56:02;14.00;99.90
74901;DHT22;63461;51.416;6.758;2022-10-31T03:59:02;14.00;99.90
74901;DHT22;63461;51.416;6.758;2022-10-31T04:01:51;14.00;99.90
74901;DHT22;63461;51.416;6.758;2022-10-31T04:04:38;14.00;99.90
74901;DHT22;63461;51.416;6.758;2022-10-31T04:07:26;14.00;99.90
74901;DHT22;63461;51.416;6.758;2022-10-31T04:10:13;14.00;99.90
74901;DHT22;63461;51.416;6.758;2022-10-31T04:13:04;14.10;99.90
74901;DHT22;63461;51.416;6.758;2022-10-31T04:16:16;14.10;99.90
74901;DHT22;63461;51.416;6.758;2022-10-31T04:19:07;14.10;99.90
74901;DHT22;63461;51.416;6.758;2022-10-31T04:21:51;14.10;99.90
74901;DHT22;63461;51.416;6.758;2022-10-31T04:24:37;14.10;99.90
74901;DHT22;63461;51.416;6.758;2022-10-31T04:27:22;14.10;99.90
74901;DHT22;63461;51.416;6.758;2022-10-31T04:30:07;14.10;99.90
74901;DHT22;63461;51.416;6.758;2022-10-31T04:32:54;14.00;99.90
74901;DHT22;63461;51.416;6.758;2022-10-31T04:35:40;14.10;99.90
74901;DHT22;63461;51.416;6.758;2022-10-31T04:38:24;14.10;99.90
74901;DHT22;63461;51.416;6.758;2022-10-31T04:41:08;14.10;99.90
74901;DHT22;63461;51.416;6.758;2022-10-31T04:44:06;14.10;99.90
74901;DHT22;63461;51.416;6.758;2022-10-31T04:46:50;14.10;99.90
74901;DHT22;63461;51.416;6.758;2022-10-31T04:49:34;14.10;99.90
74901;DHT22;63461;51.416;6.758;2022-10-31T04:52:19;14.10;99.90
74901;DHT22;63461;51.416;6.758;2022-10-31T04:55:03;14.10;99.90
74901;DHT22;63461;51.416;6.758;2022-10-31T04:58:06;14.00;99.90
74901;DHT22;63461;51.416;6.758;2022-10-31T05:00:52;14.00;99.90
74901;DHT22;63461;51.416;6.758;2022-10-31T05:03:37;14.00;99.90
74901;DHT22;63461;51.416;6.758;2022-10-31T05:06:23;14.00;99.90
74901;DHT22;63461;51.416;6.758;2022-10-31T05:09:08;13.90;99.90
74901;DHT22;63461;51.416;6.758;2022-10-31T05:11:52;13.80;99.90
74901;DHT22;63461;51.416;6.758;2022-10-31T05:14:59;13.80;99.90
74901;DHT22;63461;51.416;6.758;2022-10-31T05:18:15;13.80;99.90
74901;DHT22;63461;51.416;6.758;2022-10-31T05:21:18;13.80;99.90
74901;DHT22;63461;51.416;6.758;2022-10-31T05:24:07;13.80;99.90
74901;DHT22;63461;51.416;6.758;2022-10-31T05:26:52;13.80;99.90
74901;DHT22;63461;51.416;6.758;2022-10-31T05:29:37;13.70;99.90
74901;DHT22;63461;51.416;6.758;2022-10-31T05:32:21;13.70;99.90
74901;DHT22;63461;51.416;6.758;2022-10-31T05:35:38;13.70;99.90
74901;DHT22;63461;51.416;6.758;2022-10-31T05:38:38;13.70;99.90
74901;DHT22;63461;51.416;6.758;2022-10-31T05:41:33;13.70;99.90
74901;DHT22;63461;51.416;6.758;2022-10-31T05:44:24;13.70;99.90
74901;DHT22;63461;51.416;6.758;2022-10-31T05:47:34;13.60;99.90
74901;DHT22;63461;51.416;6.758;2022-10-31T05:50:56;13.60;99.90
74901;DHT22;63461;51.416;6.758;2022-10-31T05:53:43;13.70;99.90
74901;DHT22;63461;51.416;6.758;2022-10-31T05:56:27;13.60;99.90
74901;DHT22;63461;51.416;6.758;2022-10-31T05:59:12;13.60;99.90
74901;DHT22;63461;51.416;6.758;2022-10-31T06:01:57;13.60;99.90
74901;DHT22;63461;51.416;6.758;2022-10-31T06:04:54;13.60;99.90
74901;DHT22;63461;51.416;6.758;2022-10-31T06:07:40;13.60;99.90
74901;DHT22;63461;51.416;6.758;2022-10-31T06:10:26;13.60;99.90
74901;DHT22;63461;51.416;6.758;2022-10-31T06:13:12;13.60;99.90
74901;DHT22;63461;51.416;6.758;2022-10-31T06:16:01;13.60;99.90
74901;DHT22;63461;51.416;6.758;2022-10-31T06:18:52;13.60;99.90
74901;DHT22;63461;51.416;6.758;2022-10-31T06:21:37;13.60;99.90
74901;DHT22;63461;51.416;6.758;2022-10-31T06:24:21;13.60;99.90
74901;DHT22;63461;51.416;6.758;2022-10-31T06:27:11;13.60;99.90
74901;DHT22;63461;51.416;6.758;2022-10-31T06:29:56;13.60;99.90
74901;DHT22;63461;51.416;6.758;2022-10-31T06:32:49;13.60;99.90
74901;DHT22;63461;51.416;6.758;2022-10-31T06:35:34;13.60;99.90
74901;DHT22;63461;51.416;6.758;2022-10-31T06:38:18;13.60;99.90
74901;DHT22;63461;51.416;6.758;2022-10-31T06:41:05;13.50;99.90
74901;DHT22;63461;51.416;6.758;2022-10-31T06:43:59;13.60;99.90
74901;DHT22;63461;51.416;6.758;2022-10-31T06:47:02;13.60;99.90
74901;DHT22;63461;51.416;6.758;2022-10-31T06:50:05;13.60;99.90
74901;DHT22;63461;51.416;6.758;2022-10-31T06:52:53;13.60;99.90
74901;DHT22;63461;51.416;6.758;2022-10-31T06:55:38;13.60;99.90
74901;DHT22;63461;51.416;6.758;2022-10-31T06:58:22;13.60;99.90
74901;DHT22;63461;51.416;6.758;2022-10-31T07:01:08;13.60;99.90
74901;DHT22;63461;51.416;6.758;2022-10-31T07:03:52;13.60;99.90
74901;DHT22;63461;51.416;6.758;2022-10-31T07:06:37;13.60;99.90
74901;DHT22;63461;51.416;6.758;2022-10-31T07:09:21;13.60;99.90
74901;DHT22;63461;51.416;6.758;2022-10-31T07:12:06;13.60;99.90
74901;DHT22;63461;51.416;6.758;2022-10-31T07:14:54;13.60;99.90
74901;DHT22;63461;51.416;6.758;2022-10-31T07:17:38;13.60;99.90
74901;DHT22;63461;51.416;6.758;2022-10-31T07:20:22;13.60;99.90
74901;DHT22;63461;51.416;6.758;2022-10-31T07:23:09;13.70;99.90
74901;DHT22;63461;51.416;6.758;2022-10-31T07:25:55;13.60;99.90
74901;DHT22;63461;51.416;6.758;2022-10-31T07:28:45;13.70;99.90
74901;DHT22;63461;51.416;6.758;2022-10-31T07:31:30;13.60;99.90
74901;DHT22;63461;51.416;6.758;2022-10-31T07:34:21;13.70;99.90
74901;DHT22;63461;51.416;6.758;2022-10-31T07:37:27;13.60;99.90
74901;DHT22;63461;51.416;6.758;2022-10-31T07:40:14;13.70;99.90
74901;DHT22;63461;51.416;6.758;2022-10-31T07:42:59;13.70;99.90
74901;DHT22;63461;51.416;6.758;2022-10-31T07:46:13;13.70;99.90
74901;DHT22;63461;51.416;6.758;2022-10-31T07:49:16;13.80;99.90
74901;DHT22;63461;51.416;6.758;2022-10-31T07:52:19;13.80;99.90
74901;DHT22;63461;51.416;6.758;2022-10-31T07:55:22;13.70;99.90
74901;DHT22;63461;51.416;6.758;2022-10-31T07:58:14;13.70;99.90
74901;DHT22;63461;51.416;6.758;2022-10-31T08:00:59;13.80;99.90
74901;DHT22;63461;51.416;6.758;2022-10-31T08:03:52;13.80;99.90
74901;DHT22;63461;51.416;6.758;2022-10-31T08:07:08;13.80;99.90
74901;DHT22;63461;51.416;6.758;2022-10-31T08:09:55;13.90;99.90
74901;DHT22;63461;51.416;6.758;2022-10-31T08:12:43;13.90;99.90
74901;DHT22;63461;51.416;6.758;2022-10-31T08:15:28;13.90;99.90
74901;DHT22;63461;51.416;6.758;2022-10-31T08:18:14;14.00;99.90
74901;DHT22;63461;51.416;6.758;2022-10-31T08:20:58;14.00;99.90
74901;DHT22;63461;51.416;6.758;2022-10-31T08:23:42;14.00;99.90
74901;DHT22;63461;51.416;6.758;2022-10-31T08:26:27;14.10;99.90
74901;DHT22;63461;51.416;6.758;2022-10-31T08:29:13;14.10;99.90
74901;DHT22;63461;51.416;6.758;2022-10-31T08:31:58;14.10;99.90
74901;DHT22;63461;51.416;6.758;2022-10-31T08:35:03;14.10;99.90
74901;DHT22;63461;51.416;6.758;2022-10-31T08:38:09;14.20;99.90
74901;DHT22;63461;51.416;6.758;2022-10-31T08:40:54;14.20;99.90
74901;DHT22;63461;51.416;6.758;2022-10-31T08:43:39;14.20;99.90
74901;DHT22;63461;51.416;6.758;2022-10-31T08:46:23;14.30;99.90
74901;DHT22;63461;51.416;6.758;2022-10-31T08:49:08;14.30;99.90
74901;DHT22;63461;51.416;6.758;2022-10-31T08:51:52;14.30;99.90
74901;DHT22;63461;51.416;6.758;2022-10-31T08:54:38;14.30;99.90
74901;DHT22;63461;51.416;6.758;2022-10-31T08:57:43;14.40;99.90
74901;DHT22;63461;51.416;6.758;2022-10-31T09:00:29;14.40;99.90
74901;DHT22;63461;51.416;6.758;2022-10-31T09:03:26;14.40;99.90
74901;DHT22;63461;51.416;6.758;2022-10-31T09:06:11;14.50;99.90
74901;DHT22;63461;51.416;6.758;2022-10-31T09:08:55;14.50;99.90
74901;DHT22;63461;51.416;6.758;2022-10-31T09:11:43;14.60;99.90
74901;DHT22;63461;51.416;6.758;2022-10-31T09:14:46;14.60;99.90
74901;DHT22;63461;51.416;6.758;2022-10-31T09:17:46;14.60;99.90
74901;DHT22;63461;51.416;6.758;2022-10-31T09:20:40;14.60;99.90
74901;DHT22;63461;51.416;6.758;2022-10-31T09:23:24;14.70;99.90
74901;DHT22;63461;51.416;6.758;2022-10-31T09:26:09;14.70;99.90
74901;DHT22;63461;51.416;6.758;2022-10-31T09:28:56;14.70;99.90
74901;DHT22;63461;51.416;6.758;2022-10-31T09:31:41;14.80;99.90
74901;DHT22;63461;51.416;6.758;2022-10-31T09:34:43;14.90;99.90
74901;DHT22;63461;51.416;6.758;2022-10-31T09:37:29;14.90;99.90
74901;DHT22;63461;51.416;6.758;2022-10-31T09:40:14;15.00;99.90
74901;DHT22;63461;51.416;6.758;2022-10-31T09:52:29;15.30;99.90
74901;DHT22;63461;51.416;6.758;2022-10-31T09:55:26;15.40;99.90
74901;DHT22;63461;51.416;6.758;2022-10-31T09:58:18;15.50;99.90
74901;DHT22;63461;51.416;6.758;2022-10-31T10:01:04;15.60;99.90
74901;DHT22;63461;51.416;6.758;2022-10-31T10:03:53;15.60;99.90
74901;DHT22;63461;51.416;6.758;2022-10-31T10:06:58;15.70;99.90
74901;DHT22;63461;51.416;6.758;2022-10-31T10:10:14;15.80;99.90
74901;DHT22;63461;51.416;6.758;2022-10-31T10:19:48;16.10;99.90
74901;DHT22;63461;51.416;6.758;2022-10-31T10:22:50;16.10;99.90
74901;DHT22;63461;51.416;6.758;2022-10-31T10:25:40;16.10;99.90
74901;DHT22;63461;51.416;6.758;2022-10-31T10:28:34;16.20;99.90
74901;DHT22;63461;51.416;6.758;2022-10-31T10:31:26;16.20;99.90
74901;DHT22;63461;51.416;6.758;2022-10-31T10:34:23;16.20;99.90
74901;DHT22;63461;51.416;6.758;2022-10-31T10:37:24;16.20;99.90
74901;DHT22;63461;51.416;6.758;2022-10-31T10:40:13;16.30;99.90
74901;DHT22;63461;51.416;6.758;2022-10-31T10:43:20;16.40;99.90
74901;DHT22;63461;51.416;6.758;2022-10-31T10:46:46;16.50;99.90
74901;DHT22;63461;51.416;6.758;2022-10-31T10:49:52;16.50;99.90
74901;DHT22;63461;51.416;6.758;2022-10-31T10:53:01;16.70;99.90
74901;DHT22;63461;51.416;6.758;2022-10-31T10:56:17;16.70;99.90
74901;DHT22;63461;51.416;6.758;2022-10-31T10:59:01;16.80;99.90
74901;DHT22;63461;51.416;6.758;2022-10-31T11:01:48;16.90;99.90
74901;DHT22;63461;51.416;6.758;2022-10-31T11:04:36;17.00;99.90
74901;DHT22;63461;51.416;6.758;2022-10-31T11:07:23;17.00;99.90
74901;DHT22;63461;51.416;6.758;2022-10-31T11:10:13;17.10;99.90
74901;DHT22;63461;51.416;6.758;2022-10-31T11:16:00;17.20;99.90
74901;DHT22;63461;51.416;6.758;2022-10-31T11:18:46;17.20;99.90
74901;DHT22;63461;51.416;6.758;2022-10-31T11:21:32;17.30;99.90
74901;DHT22;63461;51.416;6.758;2022-10-31T11:27:15;17.40;99.90
74901;DHT22;63461;51.416;6.758;2022-10-31T11:30:06;17.40;99.90
74901;DHT22;63461;51.416;6.758;2022-10-31T11:32:51;17.90;99.90
74901;DHT22;63461;51.416;6.758;2022-10-31T11:35:39;18.20;99.90
74901;DHT22;63461;51.416;6.758;2022-10-31T11:38:30;18.40;99.90
74901;DHT22;63461;51.416;6.758;2022-10-31T11:41:27;18.20;99.90
74901;DHT22;63461;51.416;6.758;2022-10-31T11:44:21;18.10;99.90
74901;DHT22;63461;51.416;6.758;2022-10-31T11:47:13;17.90;99.90
74901;DHT22;63461;51.416;6.758;2022-10-31T11:50:10;17.90;99.90
74901;DHT22;63461;51.416;6.758;2022-10-31T11:52:55;17.90;99.90
74901;DHT22;63461;51.416;6.758;2022-10-31T11:55:39;17.90;99.90
74901;DHT22;63461;51.416;6.758;2022-10-31T11:58:26;18.00;99.90
74901;DHT22;63461;51.416;6.758;2022-10-31T12:01:25;18.00;99.90
74901;DHT22;63461;51.416;6.758;2022-10-31T12:04:10;18.00;99.90
74901;DHT22;63461;51.416;6.758;2022-10-31T12:06:55;18.00;99.90
74901;DHT22;63461;51.416;6.758;2022-10-31T12:09:40;18.10;99.90
74901;DHT22;63461;51.416;6.758;2022-10-31T12:15:36;18.10;99.90
74901;DHT22;63461;51.416;6.758;2022-10-31T12:18:31;18.20;99.90
74901;DHT22;63461;51.416;6.758;2022-10-31T12:21:25;18.20;99.90
74901;DHT22;63461;51.416;6.758;2022-10-31T12:36:56;18.40;99.90
74901;DHT22;63461;51.416;6.758;2022-10-31T12:45:58;18.50;99.90
74901;DHT22;63461;51.416;6.758;2022-10-31T12:49:07;18.50;99.90
74901;DHT22;63461;51.416;6.758;2022-10-31T12:58:26;18.60;99.90
74901;DHT22;63461;51.416;6.758;2022-10-31T13:01:46;18.60;99.90
74901;DHT22;63461;51.416;6.758;2022-10-31T13:10:24;18.70;99.90
74901;DHT22;63461;51.416;6.758;2022-10-31T13:16:15;18.70;99.90
74901;DHT22;63461;51.416;6.758;2022-10-31T13:19:19;18.70;99.90
74901;DHT22;63461;51.416;6.758;2022-10-31T13:22:05;18.70;99.90
74901;DHT22;63461;51.416;6.758;2022-10-31T13:28:02;18.80;99.90
74901;DHT22;63461;51.416;6.758;2022-10-31T13:30:48;18.80;99.90
74901;DHT22;63461;51.416;6.758;2022-10-31T13:34:08;18.80;99.90
74901;DHT22;63461;51.416;6.758;2022-10-31T13:46:46;18.70;99.90
74901;DHT22;63461;51.416;6.758;2022-10-31T13:52:21;18.70;99.90
74901;DHT22;63461;51.416;6.758;2022-10-31T13:55:43;18.70;99.90
74901;DHT22;63461;51.416;6.758;2022-10-31T13:58:29;18.80;99.90
74901;DHT22;63461;51.416;6.758;2022-10-31T14:01:19;18.70;99.90
74901;DHT22;63461;51.416;6.758;2022-10-31T14:04:12;18.70;99.90
74901;DHT22;63461;51.416;6.758;2022-10-31T14:07:16;18.70;99.90
74901;DHT22;63461;51.416;6.758;2022-10-31T14:10:25;18.70;99.90
74901;DHT22;63461;51.416;6.758;2022-10-31T14:16:21;18.70;99.90
74901;DHT22;63461;51.416;6.758;2022-10-31T14:19:14;18.60;99.90
74901;DHT22;63461;51.416;6.758;2022-10-31T14:22:00;18.60;99.90
74901;DHT22;63461;51.416;6.758;2022-10-31T14:24:45;19.10;99.90
74901;DHT22;63461;51.416;6.758;2022-10-31T14:27:32;19.10;99.90
74901;DHT22;63461;51.416;6.758;2022-10-31T14:30:19;18.90;99.90
74901;DHT22;63461;51.416;6.758;2022-10-31T14:33:17;18.80;99.90
74901;DHT22;63461;51.416;6.758;2022-10-31T14:36:18;18.80;99.90
74901;DHT22;63461;51.416;6.758;2022-10-31T14:51:46;18.70;99.90
74901;DHT22;63461;51.416;6.758;2022-10-31T14:54:35;18.70;99.90
74901;DHT22;63461;51.416;6.758;2022-10-31T14:57:28;18.60;99.90
74901;DHT22;63461;51.416;6.758;2022-10-31T15:00:21;18.60;99.90
74901;DHT22;63461;51.416;6.758;2022-10-31T15:03:14;18.60;99.90
74901;DHT22;63461;51.416;6.758;2022-10-31T15:06:16;18.60;99.90
74901;DHT22;63461;51.416;6.758;2022-10-31T15:09:01;18.50;99.90
74901;DHT22;63461;51.416;6.758;2022-10-31T15:11:46;18.50;99.90
74901;DHT22;63461;51.416;6.758;2022-10-31T15:14:31;18.50;99.90
74901;DHT22;63461;51.416;6.758;2022-10-31T15:17:16;18.50;99.90
74901;DHT22;63461;51.416;6.758;2022-10-31T15:20:01;18.40;99.90
74901;DHT22;63461;51.416;6.758;2022-10-31T15:22:48;18.40;99.90
74901;DHT22;63461;51.416;6.758;2022-10-31T15:25:34;18.30;99.90
74901;DHT22;63461;51.416;6.758;2022-10-31T15:28:24;18.30;99.90
74901;DHT22;63461;51.416;6.758;2022-10-31T15:31:17;18.30;99.90
74901;DHT22;63461;51.416;6.758;2022-10-31T15:34:18;18.20;99.90
74901;DHT22;63461;51.416;6.758;2022-10-31T15:37:04;18.20;99.90
74901;DHT22;63461;51.416;6.758;2022-10-31T15:39:49;18.20;99.90
74901;DHT22;63461;51.416;6.758;2022-10-31T15:42:39;18.10;99.90
74901;DHT22;63461;51.416;6.758;2022-10-31T15:45:26;18.00;99.90
74901;DHT22;63461;51.416;6.758;2022-10-31T15:48:17;18.00;99.90
74901;DHT22;63461;51.416;6.758;2022-10-31T15:51:02;17.90;99.90
74901;DHT22;63461;51.416;6.758;2022-10-31T15:53:50;17.80;99.90
74901;DHT22;63461;51.416;6.758;2022-10-31T15:56:36;17.80;99.90
74901;DHT22;63461;51.416;6.758;2022-10-31T15:59:24;17.80;99.90
74901;DHT22;63461;51.416;6.758;2022-10-31T16:02:11;17.70;99.90
74901;DHT22;63461;51.416;6.758;2022-10-31T16:04:58;17.70;99.90
74901;DHT22;63461;51.416;6.758;2022-10-31T16:07:50;17.70;99.90
74901;DHT22;63461;51.416;6.758;2022-10-31T16:10:35;17.60;99.90
74901;DHT22;63461;51.416;6.758;2022-10-31T16:13:25;17.60;99.90
74901;DHT22;63461;51.416;6.758;2022-10-31T16:16:15;17.60;99.90
74901;DHT22;63461;51.416;6.758;2022-10-31T16:19:01;17.60;99.90
74901;DHT22;63461;51.416;6.758;2022-10-31T16:21:48;17.60;99.90
74901;DHT22;63461;51.416;6.758;2022-10-31T16:24:45;17.60;99.90
74901;DHT22;63461;51.416;6.758;2022-10-31T16:27:32;17.60;99.90
74901;DHT22;63461;51.416;6.758;2022-10-31T16:30:37;17.60;99.90
74901;DHT22;63461;51.416;6.758;2022-10-31T16:33:31;17.50;99.90
74901;DHT22;63461;51.416;6.758;2022-10-31T16:36:34;17.50;99.90
74901;DHT22;63461;51.416;6.758;2022-10-31T16:39:22;17.50;99.90
74901;DHT22;63461;51.416;6.758;2022-10-31T16:42:08;17.40;99.90
74901;DHT22;63461;51.416;6.758;2022-10-31T16:44:54;17.40;99.90
74901;DHT22;63461;51.416;6.758;2022-10-31T16:47:38;17.30;99.90
74901;DHT22;63461;51.416;6.758;2022-10-31T16:50:25;17.30;99.90
74901;DHT22;63461;51.416;6.758;2022-10-31T16:53:10;17.30;99.90
74901;DHT22;63461;51.416;6.758;2022-10-31T16:55:57;17.20;99.90
74901;DHT22;63461;51.416;6.758;2022-10-31T16:58:42;17.00;99.90
74901;DHT22;63461;51.416;6.758;2022-10-31T17:01:28;17.00;99.90
74901;DHT22;63461;51.416;6.758;2022-10-31T17:04:14;17.00;99.90
74901;DHT22;63461;51.416;6.758;2022-10-31T17:06:58;16.90;99.90
74901;DHT22;63461;51.416;6.758;2022-10-31T17:09:42;16.90;99.90
74901;DHT22;63461;51.416;6.758;2022-10-31T17:12:27;16.90;99.90
74901;DHT22;63461;51.416;6.758;2022-10-31T17:15:38;16.90;99.90
74901;DHT22;63461;51.416;6.758;2022-10-31T17:18:24;16.80;99.90
74901;DHT22;63461;51.416;6.758;2022-10-31T17:21:14;16.80;99.90
74901;DHT22;63461;51.416;6.758;2022-10-31T17:24:00;16.80;99.90
74901;DHT22;63461;51.416;6.758;2022-10-31T17:26:44;16.80;99.90
74901;DHT22;63461;51.416;6.758;2022-10-31T17:29:28;16.80;99.90
74901;DHT22;63461;51.416;6.758;2022-10-31T17:32:13;16.80;99.90
74901;DHT22;63461;51.416;6.758;2022-10-31T17:34:57;16.70;99.90
74901;DHT22;63461;51.416;6.758;2022-10-31T17:37:42;16.80;99.90
74901;DHT22;63461;51.416;6.758;2022-10-31T17:40:27;16.80;99.90
74901;DHT22;63461;51.416;6.758;2022-10-31T17:43:11;16.80;99.90
74901;DHT22;63461;51.416;6.758;2022-10-31T17:45:58;16.80;99.90
74901;DHT22;63461;51.416;6.758;2022-10-31T17:48:43;16.80;99.90
74901;DHT22;63461;51.416;6.758;2022-10-31T17:51:28;16.80;99.90
74901;DHT22;63461;51.416;6.758;2022-10-31T17:54:12;16.80;99.90
74901;DHT22;63461;51.416;6.758;2022-10-31T17:56:57;16.90;99.90
74901;DHT22;63461;51.416;6.758;2022-10-31T17:59:41;16.90;99.90
74901;DHT22;63461;51.416;6.758;2022-10-31T18:02:25;16.90;99.90
74901;DHT22;63461;51.416;6.758;2022-10-31T18:05:10;16.90;99.90
74901;DHT22;63461;51.416;6.758;2022-10-31T18:07:54;16.90;99.90
74901;DHT22;63461;51.416;6.758;2022-10-31T18:10:38;16.90;99.90
74901;DHT22;63461;51.416;6.758;2022-10-31T18:13:23;16.90;99.90
74901;DHT22;63461;51.416;6.758;2022-10-31T18:16:13;16.90;99.90
74901;DHT22;63461;51.416;6.758;2022-10-31T18:18:58;16.90;99.90
74901;DHT22;63461;51.416;6.758;2022-10-31T18:21:44;17.00;99.90
74901;DHT22;63461;51.416;6.758;2022-10-31T18:24:29;16.90;99.90
74901;DHT22;63461;51.416;6.758;2022-10-31T18:27:14;16.90;99.90
74901;DHT22;63461;51.416;6.758;2022-10-31T18:29:58;16.80;99.90
74901;DHT22;63461;51.416;6.758;2022-10-31T18:32:43;16.90;99.90
74901;DHT22;63461;51.416;6.758;2022-10-31T18:35:27;16.90;99.90
74901;DHT22;63461;51.416;6.758;2022-10-31T18:38:11;16.90;99.90
74901;DHT22;63461;51.416;6.758;2022-10-31T18:40:55;17.00;99.90
74901;DHT22;63461;51.416;6.758;2022-10-31T18:43:40;17.00;99.90
74901;DHT22;63461;51.416;6.758;2022-10-31T18:46:26;16.90;99.70
74901;DHT22;63461;51.416;6.758;2022-10-31T18:49:10;16.90;99.90
74901;DHT22;63461;51.416;6.758;2022-10-31T18:51:54;16.80;99.90
74901;DHT22;63461;51.416;6.758;2022-10-31T18:54:38;16.80;99.90
74901;DHT22;63461;51.416;6.758;2022-10-31T18:57:23;16.80;99.90
74901;DHT22;63461;51.416;6.758;2022-10-31T19:00:07;16.80;99.90
74901;DHT22;63461;51.416;6.758;2022-10-31T19:02:51;16.80;99.90
74901;DHT22;63461;51.416;6.758;2022-10-31T19:05:36;16.90;99.90
74901;DHT22;63461;51.416;6.758;2022-10-31T19:08:20;16.90;99.90
74901;DHT22;63461;51.416;6.758;2022-10-31T19:11:10;16.80;99.90
74901;DHT22;63461;51.416;6.758;2022-10-31T19:13:55;16.70;99.90
74901;DHT22;63461;51.416;6.758;2022-10-31T19:16:40;16.70;99.90
74901;DHT22;63461;51.416;6.758;2022-10-31T19:19:24;16.70;99.90
74901;DHT22;63461;51.416;6.758;2022-10-31T19:22:09;16.70;99.90
74901;DHT22;63461;51.416;6.758;2022-10-31T19:24:53;16.70;99.90
74901;DHT22;63461;51.416;6.758;2022-10-31T19:27:38;16.70;99.90
74901;DHT22;63461;51.416;6.758;2022-10-31T19:30:22;16.70;99.90
74901;DHT22;63461;51.416;6.758;2022-10-31T19:33:06;16.70;99.90
74901;DHT22;63461;51.416;6.758;2022-10-31T19:35:51;16.60;99.90
74901;DHT22;63461;51.416;6.758;2022-10-31T19:38:37;16.60;99.90
74901;DHT22;63461;51.416;6.758;2022-10-31T19:41:27;16.60;99.90
74901;DHT22;63461;51.416;6.758;2022-10-31T19:44:12;16.60;99.90
74901;DHT22;63461;51.416;6.758;2022-10-31T19:46:56;16.50;99.90
74901;DHT22;63461;51.416;6.758;2022-10-31T19:49:40;16.60;99.90
74901;DHT22;63461;51.416;6.758;2022-10-31T19:52:25;16.50;99.90